createdAt,value
2022-11-12T00:01:12.362Z,12.45
2022-11-12T00:03:40.689Z,12.23
2022-11-12T00:06:08.927Z,11.93
2022-11-12T00:08:37.700Z,13.07
2022-11-12T00:11:06.134Z,13.52
2022-11-12T00:13:34.040Z,12.55
2022-11-12T00:16:02.357Z,11.85
2022-11-12T00:18:31.563Z,12.23
2022-11-12T00:20:59.608Z,12.85
2022-11-12T00:23:27.541Z,11.77
2022-11-12T00:26:02.095Z,12.60
2022-11-12T00:28:34.847Z,12.38
2022-11-12T00:31:12.517Z,12.50
2022-11-12T00:33:43.066Z,12.73
2022-11-12T00:36:11.779Z,11.65
2022-11-12T00:38:39.735Z,11.70
2022-11-12T00:41:07.956Z,11.75
2022-11-12T00:43:35.922Z,11.48
2022-11-12T00:46:06.974Z,11.45
2022-11-12T00:48:34.996Z,11.85
2022-11-12T00:51:06.386Z,11.52
2022-11-12T00:53:34.489Z,11.68
2022-11-12T00:56:03.696Z,12.95
2022-11-12T00:58:33.078Z,12.52
2022-11-12T01:01:07.449Z,12.30
2022-11-12T01:03:35.455Z,12.10
2022-11-12T01:06:05.968Z,13.30
2022-11-12T01:08:34.133Z,11.85
2022-11-12T01:11:14.020Z,12.43
2022-11-12T01:13:44.685Z,12.35
2022-11-12T01:16:14.676Z,11.77
2022-11-12T01:18:43.042Z,11.25
2022-11-12T01:21:12.718Z,12.02
2022-11-12T01:23:42.452Z,10.70
2022-11-12T01:26:12.405Z,10.68
2022-11-12T01:28:41.081Z,11.75
2022-11-12T01:31:14.161Z,12.63
2022-11-12T01:33:42.416Z,10.98
2022-11-12T01:36:12.161Z,11.40
2022-11-12T01:38:42.834Z,12.15
2022-11-12T01:41:13.397Z,11.63
2022-11-12T01:43:41.496Z,12.38
2022-11-12T01:46:18.826Z,11.45
2022-11-12T01:48:51.923Z,12.18
2022-11-12T01:51:22.852Z,12.98
2022-11-12T01:53:55.994Z,12.25
2022-11-12T01:56:25.180Z,12.70
2022-11-12T01:58:57.984Z,12.20
2022-11-12T02:01:26.627Z,11.30
2022-11-12T02:03:55.323Z,11.98
2022-11-12T02:06:26.325Z,11.38
2022-11-12T02:08:54.957Z,11.68
2022-11-12T02:11:23.646Z,10.73
2022-11-12T02:14:00.928Z,12.05
2022-11-12T02:16:33.515Z,11.13
2022-11-12T02:19:02.191Z,10.68
2022-11-12T02:21:32.292Z,11.90
2022-11-12T02:24:02.321Z,11.73
2022-11-12T02:26:33.073Z,10.70
2022-11-12T02:29:01.442Z,11.13
2022-11-12T02:31:29.442Z,10.98
2022-11-12T02:33:57.491Z,11.50
2022-11-12T02:36:25.663Z,11.98
2022-11-12T02:38:55.146Z,12.73
2022-11-12T02:41:23.433Z,12.40
2022-11-12T02:43:51.370Z,11.75
2022-11-12T02:46:19.446Z,11.90
2022-11-12T02:48:47.702Z,11.82
2022-11-12T02:51:16.166Z,11.75
2022-11-12T02:53:44.107Z,12.45
2022-11-12T02:56:13.491Z,11.77
2022-11-12T02:58:41.434Z,11.60
2022-11-12T03:01:09.378Z,11.85
2022-11-12T03:03:37.329Z,12.32
2022-11-12T03:06:05.602Z,11.07
2022-11-12T03:08:33.887Z,10.95
2022-11-12T03:11:07.675Z,11.20
2022-11-12T03:13:37.072Z,10.23
2022-11-12T03:16:05.783Z,9.77
2022-11-12T03:18:33.854Z,10.40
2022-11-12T03:21:02.003Z,9.77
2022-11-12T03:23:29.960Z,9.75
2022-11-12T03:25:58.334Z,10.52
2022-11-12T03:28:26.392Z,10.85
2022-11-12T03:30:59.796Z,12.43
2022-11-12T03:33:27.762Z,11.45
2022-11-12T03:35:56.346Z,12.30
2022-11-12T03:38:25.014Z,12.23
2022-11-12T03:40:53.068Z,12.27
2022-11-12T03:43:21.144Z,12.75
2022-11-12T03:45:49.250Z,11.32
2022-11-12T03:48:18.491Z,11.18
2022-11-12T03:50:46.671Z,10.63
2022-11-12T03:53:14.768Z,11.02
2022-11-12T03:55:43.007Z,11.35
2022-11-12T03:58:10.890Z,10.73
2022-11-12T04:00:38.877Z,11.45
2022-11-12T04:03:06.775Z,11.40
2022-11-12T04:05:53.648Z,12.18
2022-11-12T04:08:39.038Z,11.77
2022-11-12T04:11:09.691Z,10.57
2022-11-12T04:13:38.693Z,11.23
2022-11-12T04:16:26.627Z,10.10
2022-11-12T04:19:14.095Z,10.45
2022-11-12T04:21:55.781Z,9.38
2022-11-12T04:24:44.041Z,9.80
2022-11-12T04:27:14.976Z,9.98
2022-11-12T04:30:01.243Z,9.13
2022-11-12T04:32:29.843Z,8.20
2022-11-12T04:34:58.084Z,8.55
2022-11-12T04:37:29.259Z,8.23
2022-11-12T04:40:17.192Z,8.43
2022-11-12T04:43:06.149Z,9.00
2022-11-12T04:45:34.653Z,8.65
2022-11-12T04:48:02.725Z,9.68
2022-11-12T04:50:30.781Z,9.73
2022-11-12T04:52:59.999Z,10.25
2022-11-12T04:55:27.967Z,9.20
2022-11-12T04:58:00.388Z,9.27
2022-11-12T05:00:29.231Z,9.13
2022-11-12T05:02:57.091Z,8.38
2022-11-12T05:05:28.479Z,8.65
2022-11-12T05:08:02.488Z,8.88
2022-11-12T05:10:30.631Z,9.13
2022-11-12T05:12:58.603Z,8.50
2022-11-12T05:15:26.971Z,9.32
2022-11-12T05:17:54.862Z,9.68
2022-11-12T05:20:22.794Z,9.02
2022-11-12T05:23:04.976Z,8.75
2022-11-12T05:25:35.702Z,8.75
2022-11-12T05:28:04.923Z,8.32
2022-11-12T05:30:34.672Z,8.88
2022-11-12T05:33:02.493Z,8.18
2022-11-12T05:35:30.695Z,9.27
2022-11-12T05:37:58.715Z,8.85
2022-11-12T05:40:27.130Z,9.15
2022-11-12T05:42:56.365Z,8.52
2022-11-12T05:45:24.602Z,9.00
2022-11-12T05:47:52.564Z,8.95
2022-11-12T05:50:20.454Z,8.68
2022-11-12T05:52:48.408Z,8.95
2022-11-12T05:55:16.464Z,9.02
2022-11-12T05:57:44.316Z,9.23
2022-11-12T06:00:15.013Z,9.65
2022-11-12T06:02:43.204Z,8.38
2022-11-12T06:05:12.345Z,9.30
2022-11-12T06:07:40.872Z,9.38
2022-11-12T06:10:09.882Z,8.57
2022-11-12T06:12:38.716Z,9.02
2022-11-12T06:15:08.288Z,9.68
2022-11-12T06:17:38.894Z,8.60
2022-11-12T06:20:08.952Z,8.95
2022-11-12T06:22:37.075Z,9.18
2022-11-12T06:25:06.166Z,8.98
2022-11-12T06:27:34.478Z,9.45
2022-11-12T06:30:03.532Z,8.68
2022-11-12T06:32:31.430Z,8.48
2022-11-12T06:35:00.673Z,9.25
2022-11-12T06:37:28.641Z,8.75
2022-11-12T06:39:56.515Z,8.93
2022-11-12T06:42:24.362Z,8.27
2022-11-12T06:44:52.218Z,8.07
2022-11-12T06:47:20.065Z,7.97
2022-11-12T06:49:47.974Z,9.02
2022-11-12T06:52:17.758Z,8.68
2022-11-12T06:54:45.750Z,8.05
2022-11-12T06:57:13.619Z,8.60
2022-11-12T06:59:41.564Z,8.50
2022-11-12T07:02:12.635Z,8.80
2022-11-12T07:04:40.784Z,8.60
2022-11-12T07:07:10.910Z,8.38
2022-11-12T07:09:40.493Z,8.30
2022-11-12T07:12:08.982Z,8.63
2022-11-12T07:14:36.997Z,8.50
2022-11-12T07:17:05.118Z,9.25
2022-11-12T07:19:33.097Z,8.80
2022-11-12T07:22:01.010Z,9.25
2022-11-12T07:24:28.919Z,9.95
2022-11-12T07:26:58.666Z,8.25
2022-11-12T07:29:46.369Z,9.65
2022-11-12T07:32:14.712Z,8.82
2022-11-12T07:34:42.609Z,9.05
2022-11-12T07:37:10.482Z,9.02
2022-11-12T07:39:39.382Z,8.00
2022-11-12T07:42:08.996Z,8.95
2022-11-12T07:44:40.224Z,8.30
2022-11-12T07:47:08.102Z,8.43
2022-11-12T07:49:36.013Z,8.77
2022-11-12T07:52:04.066Z,8.35
2022-11-12T07:54:31.988Z,8.57
2022-11-12T07:56:59.889Z,8.38
2022-11-12T07:59:29.377Z,9.65
2022-11-12T08:01:57.306Z,8.35
2022-11-12T08:04:25.257Z,9.48
2022-11-12T08:06:54.128Z,8.20
2022-11-12T08:09:22.100Z,7.60
2022-11-12T08:11:49.945Z,9.25
2022-11-12T08:14:18.201Z,8.27
2022-11-12T08:16:47.829Z,7.47
2022-11-12T08:19:15.743Z,8.20
2022-11-12T08:21:44.578Z,8.65
2022-11-12T08:24:12.633Z,8.30
2022-11-12T08:26:40.483Z,8.32
2022-11-12T08:29:09.187Z,8.65
2022-11-12T08:31:37.836Z,8.48
2022-11-12T08:34:16.075Z,8.35
2022-11-12T08:36:46.515Z,8.05
2022-11-12T08:39:14.465Z,8.45
2022-11-12T08:41:42.312Z,9.10
2022-11-12T08:44:11.378Z,8.63
2022-11-12T08:46:39.263Z,8.10
2022-11-12T08:49:09.438Z,8.15
2022-11-12T08:51:37.792Z,8.23
2022-11-12T08:54:06.085Z,8.75
2022-11-12T08:56:34.237Z,7.72
2022-11-12T08:59:07.061Z,7.80
2022-11-12T09:01:35.608Z,7.97
2022-11-12T09:04:06.776Z,8.15
2022-11-12T09:06:36.096Z,7.68
2022-11-12T09:09:04.089Z,8.05
2022-11-12T09:11:31.980Z,7.50
2022-11-12T09:13:59.909Z,7.65
2022-11-12T09:16:28.057Z,8.98
2022-11-12T09:18:55.951Z,8.07
2022-11-12T09:21:24.945Z,7.88
2022-11-12T09:23:54.356Z,8.45
2022-11-12T09:26:22.436Z,8.10
2022-11-12T09:28:52.559Z,7.72
2022-11-12T09:31:20.455Z,8.07
2022-11-12T09:33:48.337Z,7.72
2022-11-12T09:36:17.688Z,7.55
2022-11-12T09:38:45.538Z,7.68
2022-11-12T09:41:26.963Z,7.70
2022-11-12T09:44:01.066Z,7.47
2022-11-12T09:46:37.844Z,7.70
2022-11-12T09:49:12.440Z,8.27
2022-11-12T09:51:44.696Z,7.43
2022-11-12T09:54:22.634Z,7.47
2022-11-12T09:56:53.427Z,7.70
2022-11-12T09:59:22.233Z,7.53
2022-11-12T10:02:02.501Z,7.22
2022-11-12T10:04:49.365Z,7.47
2022-11-12T10:07:30.453Z,7.88
2022-11-12T10:10:06.937Z,7.22
2022-11-12T10:12:50.654Z,7.47
2022-11-12T10:15:58.228Z,7.55
2022-11-12T10:18:37.803Z,8.50
2022-11-12T10:21:21.469Z,7.63
2022-11-12T10:23:53.199Z,7.65
2022-11-12T10:26:23.047Z,7.45
2022-11-12T10:29:00.435Z,8.30
2022-11-12T10:31:28.475Z,8.73
2022-11-12T10:34:14.651Z,7.55
2022-11-12T10:36:46.602Z,7.63
2022-11-12T10:39:33.581Z,7.57
2022-11-12T10:42:09.307Z,8.75
2022-11-12T10:44:39.530Z,8.18
2022-11-12T10:47:38.885Z,8.23
2022-11-12T10:50:21.455Z,8.05
2022-11-12T10:53:01.452Z,8.82
2022-11-12T10:55:31.246Z,8.93
2022-11-12T10:58:05.917Z,9.82
2022-11-12T11:00:35.503Z,9.27
2022-11-12T11:03:07.434Z,9.20
2022-11-12T11:05:37.452Z,9.18
2022-11-12T11:08:07.099Z,9.20
2022-11-12T11:10:37.194Z,9.55
2022-11-12T11:13:20.462Z,9.20
2022-11-12T11:16:02.142Z,9.27
2022-11-12T11:18:31.959Z,9.20
2022-11-12T11:21:09.802Z,8.65
2022-11-12T11:23:47.532Z,9.45
2022-11-12T11:26:30.754Z,9.00
2022-11-12T11:29:09.046Z,8.95
2022-11-12T11:31:46.837Z,9.43
2022-11-12T11:34:28.434Z,9.43
2022-11-12T11:37:07.489Z,9.38
2022-11-12T11:39:46.709Z,8.85
2022-11-12T11:42:31.702Z,9.77
2022-11-12T11:45:10.501Z,9.32
2022-11-12T11:48:00.636Z,9.52
2022-11-12T11:50:30.552Z,9.88
2022-11-12T11:53:15.660Z,9.50
2022-11-12T11:55:54.228Z,10.40
2022-11-12T11:58:48.063Z,10.20
2022-11-12T12:01:23.021Z,11.13
2022-11-12T12:04:19.873Z,10.07
2022-11-12T12:07:09.507Z,9.82
2022-11-12T12:09:45.445Z,10.27
2022-11-12T12:12:27.086Z,9.77
2022-11-12T12:15:18.011Z,10.20
2022-11-12T12:17:57.890Z,11.10
2022-11-12T12:20:34.032Z,11.57
2022-11-12T12:23:07.211Z,10.82
2022-11-12T12:25:39.545Z,10.88
2022-11-12T12:28:15.686Z,10.65
2022-11-12T12:30:46.840Z,11.95
2022-11-12T12:33:26.468Z,11.25
2022-11-12T12:35:59.894Z,10.82
2022-11-12T12:38:33.262Z,11.57
2022-11-12T12:41:06.702Z,12.82
2022-11-12T12:43:38.268Z,12.18
2022-11-12T12:46:08.188Z,13.18
2022-11-12T12:48:39.835Z,13.35
2022-11-12T12:51:09.503Z,12.35
2022-11-12T12:53:37.963Z,14.45
2022-11-12T12:56:07.832Z,14.48
2022-11-12T12:58:44.608Z,12.95
2022-11-12T13:01:28.315Z,13.30
2022-11-12T13:03:58.939Z,12.60
2022-11-12T13:06:32.156Z,12.18
2022-11-12T13:09:04.076Z,12.18
2022-11-12T13:12:11.166Z,11.70
2022-11-12T13:15:11.080Z,12.20
2022-11-12T13:17:48.424Z,11.82
2022-11-12T13:20:41.556Z,12.27
2022-11-12T13:24:05.465Z,11.63
2022-11-12T13:26:56.458Z,11.38
2022-11-12T13:29:48.924Z,12.35
2022-11-12T13:32:33.708Z,12.25
2022-11-12T13:35:44.703Z,11.38
2022-11-12T13:38:19.289Z,11.90
2022-11-12T13:40:51.727Z,13.00
2022-11-12T13:43:33.017Z,12.77
2022-11-12T13:46:13.684Z,13.02
2022-11-12T13:48:45.668Z,13.05
2022-11-12T13:51:17.860Z,13.65
2022-11-12T13:53:47.167Z,12.50
2022-11-12T13:56:29.440Z,13.63
2022-11-12T13:59:10.215Z,13.32
2022-11-12T14:01:38.280Z,13.73
2022-11-12T14:04:08.413Z,14.05
2022-11-12T14:06:39.067Z,13.57
2022-11-12T14:09:24.914Z,13.85
2022-11-12T14:12:15.396Z,13.00
2022-11-12T14:14:59.697Z,14.02
2022-11-12T14:17:37.655Z,13.70
2022-11-12T14:20:20.223Z,13.32
2022-11-12T14:22:48.300Z,13.95
2022-11-12T14:25:20.548Z,14.63
2022-11-12T14:27:49.322Z,15.27
2022-11-12T14:30:20.904Z,15.73
2022-11-12T14:32:51.619Z,15.18
2022-11-12T14:35:38.371Z,15.70
2022-11-12T14:38:20.123Z,15.35
2022-11-12T14:40:53.928Z,14.38
2022-11-12T14:43:28.147Z,15.25
2022-11-12T14:45:58.077Z,14.88
2022-11-12T14:48:26.460Z,16.40
2022-11-12T14:51:01.616Z,16.60
2022-11-12T14:53:34.279Z,16.20
2022-11-12T14:56:06.795Z,15.30
2022-11-12T14:58:35.938Z,17.75
2022-11-12T15:01:59.308Z,16.42
2022-11-12T15:04:20.414Z,16.92
2022-11-12T15:06:55.276Z,17.92
2022-11-12T15:09:35.214Z,17.83
2022-11-12T15:12:06.363Z,19.05
2022-11-12T15:14:35.381Z,19.27
2022-11-12T15:17:05.681Z,20.50
2022-11-12T15:19:34.183Z,19.73
2022-11-12T15:22:04.253Z,20.90
2022-11-12T15:24:34.094Z,20.70
2022-11-12T15:27:24.082Z,20.88
2022-11-12T15:30:09.498Z,22.73
2022-11-12T15:32:38.161Z,21.00
2022-11-12T15:35:07.502Z,22.25
2022-11-12T15:37:43.527Z,22.42
2022-11-12T15:40:16.333Z,22.40
2022-11-12T15:42:46.151Z,24.67
2022-11-12T15:45:17.212Z,23.20
2022-11-12T15:47:45.283Z,24.25
2022-11-12T15:50:18.007Z,22.75
2022-11-12T15:52:46.690Z,23.98
2022-11-12T15:55:14.727Z,23.65
2022-11-12T15:57:47.744Z,23.63
2022-11-12T16:00:17.741Z,24.30
2022-11-12T16:02:47.311Z,25.77
2022-11-12T16:05:16.156Z,27.45
2022-11-12T16:07:44.218Z,26.02
2022-11-12T16:10:15.108Z,25.83
2022-11-12T16:12:43.897Z,27.25
2022-11-12T16:15:17.327Z,26.50
2022-11-12T16:17:45.283Z,26.88
2022-11-12T16:20:15.665Z,27.55
2022-11-12T16:22:43.554Z,25.88
2022-11-12T16:25:11.452Z,27.15
2022-11-12T16:27:40.629Z,25.77
2022-11-12T16:30:18.527Z,26.15
2022-11-12T16:32:48.560Z,27.45
2022-11-12T16:35:17.195Z,26.45
2022-11-12T16:37:46.496Z,27.38
2022-11-12T16:40:17.194Z,26.95
2022-11-12T16:42:46.759Z,26.67
2022-11-12T16:45:17.581Z,29.33
2022-11-12T16:47:47.237Z,26.83
2022-11-12T16:50:17.766Z,29.27
2022-11-12T16:52:45.943Z,28.70
2022-11-12T16:55:13.984Z,26.55
2022-11-12T16:57:42.916Z,26.63
2022-11-12T17:00:13.844Z,27.48
2022-11-12T17:02:47.146Z,28.42
2022-11-12T17:05:19.976Z,29.00
2022-11-12T17:07:47.838Z,27.63
2022-11-12T17:10:16.890Z,26.73
2022-11-12T17:12:49.102Z,26.15
2022-11-12T17:15:17.123Z,26.73
2022-11-12T17:17:46.814Z,26.63
2022-11-12T17:20:14.789Z,27.00
2022-11-12T17:22:42.639Z,25.10
2022-11-12T17:25:10.546Z,28.10
2022-11-12T17:27:38.356Z,26.98
2022-11-12T17:30:07.572Z,26.58
2022-11-12T17:32:35.433Z,26.30
2022-11-12T17:35:05.012Z,26.90
2022-11-12T17:37:32.937Z,29.38
2022-11-12T17:40:00.831Z,29.20
2022-11-12T17:42:28.698Z,26.05
2022-11-12T17:44:56.554Z,26.73
2022-11-12T17:47:24.418Z,27.38
2022-11-12T17:49:52.474Z,26.00
2022-11-12T17:52:21.917Z,26.08
2022-11-12T17:54:49.755Z,26.00
2022-11-12T17:57:18.088Z,25.52
2022-11-12T17:59:45.909Z,23.42
2022-11-12T18:02:13.845Z,25.70
2022-11-12T18:04:41.757Z,23.88
2022-11-12T18:07:09.634Z,23.60
2022-11-12T18:09:38.881Z,24.33
2022-11-12T18:12:07.082Z,26.50
2022-11-12T18:14:35.137Z,25.17
2022-11-12T18:17:03.558Z,23.88
2022-11-12T18:19:31.716Z,22.92
2022-11-12T18:21:59.873Z,25.08
2022-11-12T18:24:27.726Z,25.63
2022-11-12T18:26:56.948Z,23.23
2022-11-12T18:29:24.811Z,23.33
2022-11-12T18:31:52.764Z,23.42
2022-11-12T18:34:20.697Z,23.20
2022-11-12T18:36:48.587Z,23.25
2022-11-12T18:39:16.543Z,23.83
2022-11-12T18:41:44.369Z,25.25
2022-11-12T18:44:14.199Z,24.75
2022-11-12T18:46:42.035Z,25.83
2022-11-12T18:49:11.079Z,25.42
2022-11-12T18:51:39.550Z,22.88
2022-11-12T18:54:07.684Z,22.40
2022-11-12T18:56:37.933Z,23.55
2022-11-12T18:59:06.050Z,23.50
2022-11-12T19:01:35.761Z,24.00
2022-11-12T19:04:04.061Z,22.13
2022-11-12T19:06:31.904Z,21.45
2022-11-12T19:09:00.682Z,22.23
2022-11-12T19:11:28.754Z,21.45
2022-11-12T19:13:57.208Z,23.25
2022-11-12T19:16:25.157Z,22.17
2022-11-12T19:18:55.869Z,22.98
2022-11-12T19:21:25.656Z,22.40
2022-11-12T19:23:55.387Z,23.05
2022-11-12T19:26:24.991Z,22.15
2022-11-12T19:28:53.077Z,23.83
2022-11-12T19:31:23.161Z,24.15
2022-11-12T19:33:52.123Z,23.35
2022-11-12T19:36:23.835Z,23.35
2022-11-12T19:38:55.867Z,24.02
2022-11-12T19:41:24.463Z,24.75
2022-11-12T19:43:52.615Z,23.92
2022-11-12T19:46:21.059Z,23.90
2022-11-12T19:48:48.933Z,22.33
2022-11-12T19:51:17.104Z,22.67
2022-11-12T19:53:46.380Z,21.52
2022-11-12T19:56:17.211Z,23.10
2022-11-12T19:58:49.408Z,22.50
2022-11-12T20:01:19.613Z,22.65
2022-11-12T20:03:47.692Z,22.58
2022-11-12T20:06:17.839Z,21.90
2022-11-12T20:08:47.785Z,21.73
2022-11-12T20:11:18.529Z,22.58
2022-11-12T20:13:46.535Z,21.33
2022-11-12T20:16:25.025Z,21.48
2022-11-12T20:18:57.534Z,19.50
2022-11-12T20:21:26.511Z,19.30
2022-11-12T20:23:55.840Z,19.77
2022-11-12T20:26:24.882Z,17.85
2022-11-12T20:28:53.180Z,18.70
2022-11-12T20:31:21.768Z,18.95
2022-11-12T20:33:50.491Z,18.42
2022-11-12T20:36:20.783Z,18.55
2022-11-12T20:38:50.260Z,20.05
2022-11-12T20:41:21.360Z,19.05
2022-11-12T20:43:52.702Z,20.20
2022-11-12T20:46:20.567Z,19.65
2022-11-12T20:48:49.163Z,19.65
2022-11-12T20:51:24.253Z,19.90
2022-11-12T20:53:59.226Z,19.52
2022-11-12T20:56:30.914Z,19.35
2022-11-12T20:58:59.758Z,18.13
2022-11-12T21:01:29.528Z,18.10
2022-11-12T21:03:58.596Z,17.50
2022-11-12T21:06:28.275Z,16.85
2022-11-12T21:08:59.761Z,16.35
2022-11-12T21:11:29.287Z,17.42
2022-11-12T21:13:57.189Z,17.02
2022-11-12T21:16:25.483Z,17.08
2022-11-12T21:18:53.528Z,16.38
2022-11-12T21:21:21.620Z,16.05
2022-11-12T21:23:51.151Z,16.33
2022-11-12T21:26:21.959Z,17.40
2022-11-12T21:28:52.785Z,18.73
2022-11-12T21:31:27.463Z,17.85
2022-11-12T21:33:58.240Z,17.88
2022-11-12T21:36:28.512Z,19.08
2022-11-12T21:38:56.668Z,19.35
2022-11-12T21:41:26.625Z,20.27
2022-11-12T21:43:56.444Z,19.98
2022-11-12T21:46:25.835Z,18.80
2022-11-12T21:48:55.402Z,19.33
2022-11-12T21:51:24.761Z,19.48
2022-11-12T21:53:56.076Z,20.67
2022-11-12T21:56:24.748Z,19.92
2022-11-12T21:58:59.308Z,20.40
2022-11-12T22:01:28.654Z,20.77
2022-11-12T22:03:59.471Z,19.33
2022-11-12T22:06:29.333Z,19.58
2022-11-12T22:08:59.117Z,20.15
2022-11-12T22:11:27.893Z,18.83
2022-11-12T22:13:57.477Z,20.45
2022-11-12T22:16:27.281Z,18.63
2022-11-12T22:18:56.581Z,22.08
2022-11-12T22:21:26.011Z,21.10
2022-11-12T22:23:54.109Z,21.05
2022-11-12T22:26:25.240Z,19.13
2022-11-12T22:28:54.053Z,21.50
2022-11-12T22:31:25.125Z,20.10
2022-11-12T22:33:53.015Z,18.95
2022-11-12T22:36:23.027Z,19.40
2022-11-12T22:38:53.116Z,18.42
2022-11-12T22:41:22.930Z,19.20
2022-11-12T22:43:51.991Z,19.42
2022-11-12T22:46:21.924Z,19.85
2022-11-12T22:48:51.751Z,20.33
2022-11-12T22:51:21.154Z,18.25
2022-11-12T22:53:49.258Z,16.45
2022-11-12T22:56:17.957Z,15.52
2022-11-12T22:58:47.255Z,16.73
2022-11-12T23:01:20.919Z,16.48
2022-11-12T23:03:49.730Z,14.60
2022-11-12T23:06:20.176Z,15.95
2022-11-12T23:08:49.246Z,15.98
2022-11-12T23:11:20.385Z,17.30
2022-11-12T23:13:49.319Z,18.05
2022-11-12T23:16:19.236Z,18.95
2022-11-12T23:18:47.502Z,19.05
2022-11-12T23:21:17.874Z,18.42
2022-11-12T23:23:47.589Z,18.42
2022-11-12T23:26:17.683Z,18.80
2022-11-12T23:28:45.846Z,20.58
2022-11-12T23:31:15.617Z,20.35
2022-11-12T23:33:45.786Z,19.05
2022-11-12T23:36:14.107Z,18.30
2022-11-12T23:38:42.307Z,19.13
2022-11-12T23:41:13.231Z,17.35
2022-11-12T23:43:41.700Z,18.77
2022-11-12T23:46:09.602Z,19.40
2022-11-12T23:48:37.567Z,18.17
2022-11-12T23:51:07.219Z,18.80
2022-11-12T23:53:36.458Z,16.95
2022-11-12T23:56:05.664Z,16.67
2022-11-12T23:58:34.919Z,17.00
